Time;durP1;ratioP1;P1;durP2;ratioP2;P2;SDS_P1;SDS_P2;PMS_P1;PMS_P2;Temp;Humidity;BMP_temperature;BMP_pressure;BME280_temperature;BME280_humidity;BME280_pressure;Samples;Min_cycle;Max_cycle;Signal;HPM_P1;HPM_P2
2024/03/29 00:01:02;;;;;;;;;2.75;1.00;;;;;12.69;67.14;98615.78;5081469;27;45483;-63
2024/03/29 00:03:27;;;;;;;;;0.00;0.00;;;;;12.77;66.66;98615.22;5080892;27;45531;-63
2024/03/29 00:05:53;;;;;;;;;0.00;0.00;;;;;12.68;66.95;98602.53;5079789;28;47421;-63
2024/03/29 00:08:18;;;;;;;;;0.00;0.00;;;;;12.91;67.40;98640.94;5081181;28;45428;-63
2024/03/29 00:10:47;;;;;;;;;0.50;0.50;;;;;12.87;67.30;98636.81;5081310;27;45411;-63
2024/03/29 00:13:12;;;;;;;;;0.00;0.00;;;;;12.71;67.73;98608.53;5081108;28;45397;-63
2024/03/29 00:15:37;;;;;;;;;0.50;0.00;;;;;12.73;68.02;98621.75;5081130;27;48008;-63
2024/03/29 00:18:02;;;;;;;;;1.00;0.00;;;;;12.65;68.07;98605.47;5080653;28;54936;-63
2024/03/29 00:20:29;;;;;;;;;0.00;0.00;;;;;12.72;68.32;98623.59;5079638;28;45329;-63
2024/03/29 00:22:54;;;;;;;;;2.00;0.00;;;;;12.78;68.09;98623.16;5081247;28;45301;-63
2024/03/29 00:25:20;;;;;;;;;1.00;0.00;;;;;12.86;68.06;98635.09;5080473;28;45446;-63
2024/03/29 00:27:45;;;;;;;;;0.00;0.00;;;;;12.85;68.60;98623.53;5079548;28;45418;-63
2024/03/29 00:30:11;;;;;;;;;2.00;0.00;;;;;12.67;68.70;98595.47;5080970;27;45353;-63
2024/03/29 00:32:37;;;;;;;;;0.25;0.00;;;;;12.80;69.35;98609.66;5080757;27;45506;-63
2024/03/29 00:35:02;;;;;;;;;1.75;0.50;;;;;12.65;69.54;98578.69;5096403;27;48496;-63
2024/03/29 00:37:28;;;;;;;;;1.00;0.00;;;;;12.75;69.40;98596.59;5080767;27;45343;-63
2024/03/29 00:39:53;;;;;;;;;0.00;0.00;;;;;12.65;69.59;98568.81;5080604;27;45344;-63
2024/03/29 00:42:20;;;;;;;;;2.00;0.00;;;;;12.79;69.49;98599.91;5080715;27;45390;-63
2024/03/29 00:44:47;;;;;;;;;1.00;0.00;;;;;12.55;69.30;98559.78;5080516;27;46119;-63
2024/03/29 00:47:13;;;;;;;;;0.00;0.00;;;;;12.74;69.57;98591.38;5080555;27;45358;-63
2024/03/29 00:49:39;;;;;;;;;0.00;0.00;;;;;12.56;68.95;98558.81;5079277;28;45322;-63
2024/03/29 00:52:04;;;;;;;;;0.25;0.00;;;;;12.55;69.53;98562.47;5083503;27;45517;-63
2024/03/29 00:54:30;;;;;;;;;0.75;0.00;;;;;12.48;69.62;98551.38;5079446;28;45317;-63
2024/03/29 00:56:56;;;;;;;;;0.00;0.00;;;;;12.69;69.24;98596.22;5080379;27;45312;-63
2024/03/29 00:59:22;;;;;;;;;2.25;1.00;;;;;12.49;69.31;98549.53;5080568;27;45423;-63
2024/03/29 01:01:49;;;;;;;;;0.50;0.50;;;;;12.37;69.62;98544.13;5080399;27;45370;-63
2024/03/29 01:04:14;;;;;;;;;1.00;1.00;;;;;12.40;69.75;98556.44;5080152;28;45608;-63
2024/03/29 01:06:45;;;;;;;;;0.00;0.00;;;;;12.63;69.97;98591.31;5080544;27;45471;-63
2024/03/29 01:09:13;;;;;;;;;0.25;0.25;;;;;12.44;69.71;98565.09;5080198;27;45321;-63
2024/03/29 01:11:39;;;;;;;;;0.00;0.00;;;;;12.42;69.71;98568.72;5080353;27;45476;-63
2024/03/29 01:14:06;;;;;;;;;0.00;0.00;;;;;12.55;70.39;98603.44;5079598;27;46283;-63
2024/03/29 01:16:31;;;;;;;;;0.75;0.75;;;;;12.32;71.13;98553.47;5079772;27;45454;-63
2024/03/29 01:18:57;;;;;;;;;0.25;0.25;;;;;12.28;70.54;98541.28;5079016;28;45252;-63
2024/03/29 01:21:23;;;;;;;;;0.25;0.00;;;;;12.35;71.04;98558.59;5079999;28;45472;-63
2024/03/29 01:23:49;;;;;;;;;0.75;0.75;;;;;12.30;71.17;98556.28;5079905;27;46179;-63
2024/03/29 01:26:17;;;;;;;;;0.75;0.75;;;;;12.44;70.88;98565.09;5078345;28;45433;-63
2024/03/29 01:28:42;;;;;;;;;2.00;0.00;;;;;12.23;71.49;98553.19;5080330;27;45547;-63
2024/03/29 01:31:07;;;;;;;;;0.00;0.00;;;;;12.41;71.39;98585.75;5079871;28;45443;-63
2024/03/29 01:33:36;;;;;;;;;1.00;1.00;;;;;12.26;71.38;98559.28;5078579;28;47292;-63
2024/03/29 01:36:02;;;;;;;;;1.00;1.00;;;;;12.20;71.41;98553.41;5079888;27;45306;-63
2024/03/29 01:38:27;;;;;;;;;1.00;0.00;;;;;12.25;71.53;98574.47;5080123;27;45286;-63
2024/03/29 01:40:52;;;;;;;;;1.25;1.00;;;;;12.21;71.58;98546.25;5079543;27;46186;-63
2024/03/29 01:43:17;;;;;;;;;1.75;1.00;;;;;12.29;72.47;98565.25;5079805;27;45280;-63
2024/03/29 01:45:47;;;;;;;;;0.00;0.00;;;;;12.33;72.04;98565.88;5079550;27;45314;-63
2024/03/29 01:48:13;;;;;;;;;1.00;1.00;;;;;12.14;72.24;98534.28;5095541;27;45455;-63
2024/03/29 01:50:38;;;;;;;;;1.25;1.25;;;;;12.26;72.43;98553.94;5079555;27;45468;-63
2024/03/29 01:53:07;;;;;;;;;2.50;1.00;;;;;12.31;72.34;98575.84;5079561;28;51289;-63
2024/03/29 01:55:34;;;;;;;;;1.75;0.50;;;;;12.45;71.88;98602.44;5079252;27;45687;-63
2024/03/29 01:57:59;;;;;;;;;2.25;1.00;;;;;12.30;72.36;98560.78;5078330;28;45432;-63
2024/03/29 02:00:26;;;;;;;;;1.00;1.00;;;;;12.26;72.30;98540.56;5079459;27;45505;-63
2024/03/29 02:02:52;;;;;;;;;3.00;2.00;;;;;12.33;72.35;98531.09;5079403;28;45482;-63
2024/03/29 02:05:18;;;;;;;;;1.00;1.00;;;;;12.30;72.38;98529.53;5079333;27;45422;-63
2024/03/29 02:07:46;;;;;;;;;1.00;1.00;;;;;12.27;72.02;98551.16;5078452;28;45444;-63
2024/03/29 02:10:13;;;;;;;;;1.00;1.00;;;;;12.48;72.88;98594.19;5079214;27;45540;-63
2024/03/29 02:12:39;;;;;;;;;1.25;1.25;;;;;12.30;72.48;98566.97;5079454;27;45442;-63
2024/03/29 02:15:05;;;;;;;;;1.25;1.25;;;;;12.30;73.21;98558.94;5079360;27;45314;-63
2024/03/29 02:17:31;;;;;;;;;1.00;1.00;;;;;12.22;72.33;98550.63;5079505;27;45354;-63
2024/03/29 02:19:57;;;;;;;;;1.00;1.00;;;;;12.13;72.61;98554.84;5079057;27;45532;-63
2024/03/29 02:22:24;;;;;;;;;0.75;0.75;;;;;12.20;72.48;98558.75;5079332;27;46056;-62
2024/03/29 02:24:50;;;;;;;;;1.75;1.00;;;;;12.19;72.54;98553.53;5078835;27;45471;-63
2024/03/29 02:27:16;;;;;;;;;3.00;1.00;;;;;12.41;72.40;98592.91;5080782;28;45364;-63
2024/03/29 02:29:41;;;;;;;;;1.00;1.00;;;;;12.42;72.91;98594.63;5082718;27;45464;-63
2024/03/29 02:32:07;;;;;;;;;0.50;0.50;;;;;12.25;73.14;98562.94;5082752;27;45355;-63
2024/03/29 02:34:32;;;;;;;;;2.00;2.00;;;;;12.25;72.69;98555.75;5082677;27;45478;-63
2024/03/29 02:36:59;;;;;;;;;2.00;2.00;;;;;12.32;72.91;98562.34;5082921;27;45300;-63
2024/03/29 02:39:24;;;;;;;;;3.25;1.25;;;;;12.35;72.83;98572.81;5082418;28;45322;-62
2024/03/29 02:41:49;;;;;;;;;2.00;1.50;;;;;12.29;73.12;98570.59;5082658;28;46107;-63
2024/03/29 02:44:15;;;;;;;;;1.00;1.00;;;;;12.19;73.14;98540.16;5082509;28;45308;-63
2024/03/29 02:46:41;;;;;;;;;1.00;1.00;;;;;12.25;73.06;98563.78;5081238;28;45370;-63
2024/03/29 02:49:07;;;;;;;;;1.00;1.00;;;;;12.40;73.18;98591.22;5081050;28;45515;-63
2024/03/29 02:51:32;;;;;;;;;1.00;1.00;;;;;12.39;72.87;98589.50;5082569;28;46676;-63
2024/03/29 02:53:58;;;;;;;;;1.00;1.00;;;;;12.29;73.03;98575.94;5082154;28;45496;-63
2024/03/29 02:56:23;;;;;;;;;1.00;1.00;;;;;12.33;73.17;98592.63;5082573;27;45526;-63
2024/03/29 02:58:48;;;;;;;;;1.75;1.75;;;;;12.48;72.98;98606.69;5080900;28;46093;-63
2024/03/29 03:01:14;;;;;;;;;1.75;0.75;;;;;12.35;73.20;98577.34;5082159;27;45410;-63
2024/03/29 03:03:39;;;;;;;;;1.00;1.00;;;;;12.42;73.25;98602.66;5082359;27;45413;-63
2024/03/29 03:06:05;;;;;;;;;1.75;1.00;;;;;12.44;73.27;98614.09;5082391;27;45299;-63
2024/03/29 03:11:15;;;;;;;;;0.25;0.25;;;;;12.52;73.67;98611.72;5082083;28;45454;-63
2024/03/29 03:13:40;;;;;;;;;3.50;1.00;;;;;12.40;73.73;98588.56;5081970;27;45379;-63
2024/03/29 03:16:05;;;;;;;;;1.50;1.00;;;;;12.39;73.82;98585.00;5082209;27;45568;-63
2024/03/29 03:18:31;;;;;;;;;1.00;1.00;;;;;12.46;73.93;98597.94;5081814;28;45670;-63
2024/03/29 03:21:00;;;;;;;;;0.25;0.25;;;;;12.42;74.19;98591.97;5082138;27;46194;-63
2024/03/29 03:23:27;;;;;;;;;1.00;1.00;;;;;12.47;74.16;98610.34;5081686;27;45322;-63
2024/03/29 03:25:57;;;;;;;;;1.00;1.00;;;;;12.55;74.25;98627.53;5080719;28;45523;-63
2024/03/29 03:28:23;;;;;;;;;1.00;1.00;;;;;12.39;74.23;98606.41;5081657;27;45454;-63
2024/03/29 03:30:49;;;;;;;;;0.00;0.00;;;;;12.38;74.26;98599.38;5081730;27;46384;-63
2024/03/29 03:33:15;;;;;;;;;1.00;1.00;;;;;12.57;74.27;98638.13;5081737;27;45887;-63
2024/03/29 03:35:41;;;;;;;;;2.75;1.00;;;;;12.53;74.76;98629.47;5081879;28;45546;-63
2024/03/29 03:38:08;;;;;;;;;0.00;0.00;;;;;12.58;74.48;98627.31;5080948;27;45384;-63
2024/03/29 03:40:34;;;;;;;;;2.25;1.00;;;;;12.57;74.68;98636.31;5081510;27;46719;-63
2024/03/29 03:42:59;;;;;;;;;0.25;0.25;;;;;12.44;74.91;98613.25;5080289;28;45452;-63
2024/03/29 03:45:24;;;;;;;;;0.00;0.00;;;;;12.49;74.93;98619.97;5080392;28;45401;-63
2024/03/29 03:47:50;;;;;;;;;1.00;1.00;;;;;12.44;75.05;98603.41;5081472;28;45330;-63
2024/03/29 03:50:15;;;;;;;;;0.00;0.00;;;;;12.48;75.65;98615.59;5080259;28;47924;-63
2024/03/29 03:52:41;;;;;;;;;0.00;0.00;;;;;12.39;75.23;98603.72;5081439;27;45449;-63
2024/03/29 03:55:06;;;;;;;;;1.75;0.50;;;;;12.51;75.62;98614.50;5081513;27;45433;-63
2024/03/29 03:57:33;;;;;;;;;1.00;1.00;;;;;12.41;75.13;98604.50;5081303;27;45441;-63
2024/03/29 03:59:59;;;;;;;;;0.00;0.00;;;;;12.43;75.85;98620.44;5081466;27;45476;-63
2024/03/29 04:02:24;;;;;;;;;0.00;0.00;;;;;12.48;75.82;98630.78;5081276;27;45330;-63
2024/03/29 04:04:49;;;;;;;;;0.25;0.00;;;;;12.50;76.39;98643.09;5081542;27;45300;-63
2024/03/29 04:07:15;;;;;;;;;0.00;0.00;;;;;12.56;76.71;98647.13;5080041;28;45388;-63
2024/03/29 04:09:40;;;;;;;;;0.00;0.00;;;;;12.49;76.30;98635.16;5081164;27;45321;-63
2024/03/29 04:12:06;;;;;;;;;0.00;0.00;;;;;12.51;76.61;98636.78;5081066;27;48274;-63
2024/03/29 04:14:31;;;;;;;;;1.50;0.75;;;;;12.51;76.89;98649.28;5080085;28;45461;-63
2024/03/29 04:16:56;;;;;;;;;0.00;0.00;;;;;12.52;77.13;98659.03;5081047;28;45546;-63
2024/03/29 04:19:22;;;;;;;;;0.00;0.00;;;;;12.53;77.08;98660.72;5081018;28;46581;-63
2024/03/29 04:21:47;;;;;;;;;0.00;0.00;;;;;12.46;77.08;98654.13;5080761;27;46824;-63
2024/03/29 04:24:12;;;;;;;;;1.00;0.00;;;;;12.57;77.43;98675.59;5081031;28;45398;-63
2024/03/29 04:26:38;;;;;;;;;1.00;1.00;;;;;12.54;77.38;98675.81;5080759;27;45441;-63
2024/03/29 04:29:04;;;;;;;;;0.00;0.00;;;;;12.70;77.48;98707.69;5080982;27;45417;-63
2024/03/29 04:31:29;;;;;;;;;1.00;0.00;;;;;12.40;77.76;98663.47;5080806;27;45304;-63
2024/03/29 04:33:54;;;;;;;;;0.25;0.00;;;;;12.61;78.26;98703.84;5081198;27;45393;-63
2024/03/29 04:36:20;;;;;;;;;1.00;1.00;;;;;12.47;77.93;98672.75;5079341;28;45537;-63
2024/03/29 04:38:45;;;;;;;;;0.00;0.00;;;;;12.51;77.98;98687.63;5080666;27;45585;-63
2024/03/29 04:41:10;;;;;;;;;2.00;0.75;;;;;12.48;78.38;98674.47;5080670;27;45453;-63
2024/03/29 04:43:36;;;;;;;;;1.00;0.00;;;;;12.49;78.50;98692.22;5080890;28;45427;-63
2024/03/29 04:46:12;;;;;;;;;0.00;0.00;;;;;12.48;78.85;98695.00;5080531;28;45436;-63
2024/03/29 04:48:37;;;;;;;;;0.50;0.00;;;;;12.58;78.71;98715.63;5079247;28;47365;-63
2024/03/29 04:51:04;;;;;;;;;0.00;0.00;;;;;12.52;78.31;98701.84;5080545;27;45375;-63
2024/03/29 04:53:29;;;;;;;;;0.00;0.00;;;;;12.74;78.47;98731.41;5080634;27;45280;-63
2024/03/29 04:55:55;;;;;;;;;1.00;0.00;;;;;12.61;78.42;98709.19;5080493;28;45307;-63
2024/03/29 04:58:25;;;;;;;;;0.50;0.00;;;;;12.64;78.36;98710.81;5079091;28;47539;-63
2024/03/29 05:00:51;;;;;;;;;1.00;0.00;;;;;12.76;78.48;98726.81;5080223;28;45359;-63
2024/03/29 05:03:18;;;;;;;;;0.00;0.00;;;;;12.62;78.94;98702.03;5079392;28;45413;-63
2024/03/29 05:05:43;;;;;;;;;0.00;0.00;;;;;12.54;78.76;98691.88;5080285;27;45393;-63
2024/03/29 05:08:09;;;;;;;;;0.00;0.00;;;;;12.75;78.89;98737.66;5080518;27;45430;-63
2024/03/29 05:10:34;;;;;;;;;1.00;0.00;;;;;12.74;78.78;98747.47;5080035;28;45400;-63
2024/03/29 05:13:00;;;;;;;;;0.00;0.00;;;;;12.57;78.44;98715.75;5079097;28;45361;-63
2024/03/29 05:15:26;;;;;;;;;0.00;0.00;;;;;12.65;78.70;98728.59;5078787;28;45321;-63
2024/03/29 05:17:51;;;;;;;;;4.25;0.00;;;;;12.60;78.69;98721.72;5080077;27;46191;-63
2024/03/29 05:20:16;;;;;;;;;0.00;0.00;;;;;12.65;78.41;98709.84;5080030;27;45468;-63
2024/03/29 05:22:42;;;;;;;;;0.00;0.00;;;;;12.84;78.47;98757.53;5078887;28;45446;-63
2024/03/29 05:25:08;;;;;;;;;1.00;0.00;;;;;12.62;78.50;98729.66;5079798;27;45360;-63
2024/03/29 05:27:33;;;;;;;;;0.50;0.00;;;;;12.81;78.28;98774.66;5079949;27;45433;-63
2024/03/29 05:29:59;;;;;;;;;2.00;0.00;;;;;12.65;78.60;98756.19;5079886;27;45619;-63
2024/03/29 05:32:24;;;;;;;;;0.75;0.75;;;;;12.58;78.36;98744.22;5078692;28;45456;-63
2024/03/29 05:34:50;;;;;;;;;0.00;0.00;;;;;12.89;78.19;98793.69;5079933;27;45611;-63
2024/03/29 05:37:17;;;;;;;;;0.00;0.00;;;;;12.91;78.29;98806.97;5079760;27;46564;-63
2024/03/29 05:39:43;;;;;;;;;0.75;0.25;;;;;12.89;78.17;98799.06;5079590;27;45272;-63
2024/03/29 05:42:08;;;;;;;;;1.00;1.00;;;;;12.67;78.25;98772.16;5079995;27;45333;-63
2024/03/29 05:44:36;;;;;;;;;1.75;0.25;;;;;12.87;78.22;98802.81;5079779;27;45309;-63
2024/03/29 05:47:04;;;;;;;;;0.00;0.00;;;;;12.88;78.28;98808.06;5079595;28;46330;-63
2024/03/29 05:49:29;;;;;;;;;0.00;0.00;;;;;12.83;78.50;98791.50;5079593;27;45402;-63
2024/03/29 05:51:54;;;;;;;;;0.25;0.25;;;;;12.70;78.29;98759.38;5079864;27;45321;-63
2024/03/29 05:54:20;;;;;;;;;1.00;0.50;;;;;12.87;78.39;98792.97;5079287;27;45499;-63
2024/03/29 05:56:45;;;;;;;;;0.00;0.00;;;;;12.66;77.86;98752.53;5079568;27;46142;-63
2024/03/29 05:59:12;;;;;;;;;1.00;0.00;;;;;12.84;77.96;98784.31;5079338;28;45412;-63
2024/03/29 06:01:37;;;;;;;;;0.00;0.00;;;;;12.82;77.55;98776.38;5079185;27;45356;-63
2024/03/29 06:04:08;;;;;;;;;1.00;1.00;;;;;12.73;78.11;98764.53;5079366;28;45323;-63
2024/03/29 06:06:34;;;;;;;;;0.00;0.00;;;;;12.88;77.78;98799.16;5077630;28;47310;-63
2024/03/29 06:09:00;;;;;;;;;0.00;0.00;;;;;12.72;77.69;98770.00;5079083;27;45300;-63
2024/03/29 06:11:25;;;;;;;;;0.50;0.00;;;;;12.72;77.69;98756.59;5079678;27;45406;-63
2024/03/29 06:19:04;;;;;;;;;2.00;0.00;;;;;12.69;77.50;98772.88;5079260;28;45883;-63
2024/03/29 06:21:38;;;;;;;;;1.50;0.25;;;;;12.73;77.33;98771.69;5079213;27;45653;-63
2024/03/29 06:24:03;;;;;;;;;0.00;0.00;;;;;12.72;77.67;98764.63;5079170;28;45331;-63
2024/03/29 06:26:29;;;;;;;;;1.00;1.00;;;;;12.67;77.15;98753.41;5077411;28;47285;-63
2024/03/29 06:28:55;;;;;;;;;0.00;0.00;;;;;12.89;77.36;98788.34;5079366;28;45372;-63
2024/03/29 06:31:20;;;;;;;;;1.00;0.75;;;;;12.77;77.35;98779.38;5079110;27;45268;-63
2024/03/29 06:33:45;;;;;;;;;0.00;0.00;;;;;12.88;77.21;98808.06;5079215;27;45312;-63
2024/03/29 06:36:11;;;;;;;;;2.00;1.00;;;;;12.74;77.22;98784.09;5077562;28;48245;-63
2024/03/29 06:38:36;;;;;;;;;0.00;0.00;;;;;12.73;77.22;98774.34;5078986;27;45318;-63
2024/03/29 06:41:01;;;;;;;;;0.50;0.00;;;;;12.77;77.24;98778.53;5078845;28;45799;-63
2024/03/29 06:43:27;;;;;;;;;2.00;1.00;;;;;12.91;77.37;98801.63;5079172;28;45485;-63
2024/03/29 06:45:52;;;;;;;;;1.00;1.00;;;;;12.94;77.66;98802.25;5078574;28;46482;-63
2024/03/29 06:48:17;;;;;;;;;1.00;1.00;;;;;12.86;77.77;98793.91;5079139;27;45456;-63
2024/03/29 06:50:43;;;;;;;;;1.00;1.00;;;;;12.76;77.61;98788.41;5079090;27;45424;-63
2024/03/29 06:53:08;;;;;;;;;1.00;1.00;;;;;12.96;77.46;98829.78;5078934;28;45412;-63
2024/03/29 06:55:36;;;;;;;;;0.00;0.00;;;;;12.98;77.49;98824.31;5078474;27;45461;-63
2024/03/29 06:58:02;;;;;;;;;1.00;1.00;;;;;12.83;77.58;98801.31;5078793;27;45317;-63
2024/03/29 07:00:27;;;;;;;;;2.00;0.50;;;;;12.84;77.93;98800.38;5078961;27;45402;-63
2024/03/29 07:02:53;;;;;;;;;1.25;1.00;;;;;12.81;78.17;98798.75;5078557;27;45539;-63
2024/03/29 07:05:18;;;;;;;;;1.50;1.00;;;;;12.95;78.15;98825.41;5076961;28;45729;-63
2024/03/29 07:07:46;;;;;;;;;2.00;1.00;;;;;13.02;78.20;98827.63;5077009;28;45314;-63
2024/03/29 07:10:12;;;;;;;;;1.00;1.00;;;;;13.03;78.20;98829.31;5078433;28;45533;-63
2024/03/29 07:12:37;;;;;;;;;1.00;1.00;;;;;12.84;78.35;98789.66;5079106;27;45357;-63
2024/03/29 07:15:03;;;;;;;;;2.00;0.75;;;;;12.89;78.58;98796.38;5081893;27;46548;-63
2024/03/29 07:17:28;;;;;;;;;0.00;0.00;;;;;12.86;79.06;98788.56;5081941;28;45373;-63
2024/03/29 07:19:53;;;;;;;;;1.75;1.50;;;;;13.05;78.86;98814.03;5082136;28;45441;-63
2024/03/29 07:22:19;;;;;;;;;1.00;1.00;;;;;12.78;79.11;98769.56;5081936;27;45517;-63
2024/03/29 07:24:45;;;;;;;;;2.00;2.00;;;;;13.04;79.13;98799.75;5080078;28;47074;-63
2024/03/29 07:27:12;;;;;;;;;0.50;0.50;;;;;12.91;79.39;98777.53;5081750;27;45570;-63
2024/03/29 07:29:38;;;;;;;;;1.00;1.00;;;;;12.85;79.29;98773.47;5082072;27;45418;-63
2024/03/29 07:32:03;;;;;;;;;1.75;1.75;;;;;12.87;79.17;98774.22;5081799;27;45294;-63
2024/03/29 07:34:29;;;;;;;;;0.50;0.00;;;;;12.93;79.29;98789.84;5081542;27;45397;-63
2024/03/29 07:36:54;;;;;;;;;1.50;1.50;;;;;13.10;79.17;98826.09;5081869;27;45490;-63
2024/03/29 07:39:20;;;;;;;;;2.00;2.00;;;;;13.03;79.83;98824.84;5081706;28;45315;-63
2024/03/29 07:41:45;;;;;;;;;1.50;1.50;;;;;13.18;79.98;98838.94;5081695;27;45440;-63
2024/03/29 07:44:11;;;;;;;;;1.50;1.50;;;;;12.99;80.01;98809.94;5081491;28;45535;-63
2024/03/29 07:46:37;;;;;;;;;1.75;1.75;;;;;13.10;79.87;98820.75;5081527;28;45344;-63
2024/03/29 07:49:03;;;;;;;;;2.00;2.00;;;;;13.06;80.28;98835.31;5080363;28;45456;-63
2024/03/29 07:51:29;;;;;;;;;2.00;2.00;;;;;13.02;80.58;98812.41;5080106;28;46016;-63
2024/03/29 07:53:55;;;;;;;;;3.00;2.00;;;;;13.02;80.45;98811.56;5081202;28;46369;-63
2024/03/29 07:56:21;;;;;;;;;1.00;1.00;;;;;13.18;80.39;98844.28;5081478;27;45649;-63
2024/03/29 07:58:50;;;;;;;;;2.00;2.00;;;;;13.22;80.05;98852.97;5081271;27;45477;-63
2024/03/29 08:01:23;;;;;;;;;1.00;1.00;;;;;13.22;80.79;98840.41;5081321;27;45307;-63
2024/03/29 08:03:51;;;;;;;;;1.00;1.00;;;;;13.11;80.55;98826.94;5081069;27;45479;-63
2024/03/29 08:06:19;;;;;;;;;1.00;1.00;;;;;13.13;80.42;98831.22;5081470;27;45523;-63
2024/03/29 08:08:45;;;;;;;;;0.00;0.00;;;;;13.21;80.15;98840.53;5081083;27;45400;-63
2024/03/29 08:11:11;;;;;;;;;1.25;0.00;;;;;13.32;80.37;98851.34;5081334;28;45454;-63
2024/03/29 08:13:38;;;;;;;;;1.00;1.00;;;;;13.12;80.08;98813.44;5080954;27;46472;-63
2024/03/29 08:16:04;;;;;;;;;2.00;1.75;;;;;13.12;79.79;98817.94;5081163;27;45248;-63
2024/03/29 08:18:31;;;;;;;;;2.25;1.00;;;;;13.13;79.52;98815.16;5081179;28;45513;-62
2024/03/29 08:20:57;;;;;;;;;2.00;0.00;;;;;13.12;80.09;98812.59;5081180;27;45540;-63
2024/03/29 08:23:22;;;;;;;;;0.25;0.25;;;;;13.31;79.90;98845.09;5080385;27;45393;-63
2024/03/29 08:25:48;;;;;;;;;0.25;0.00;;;;;13.34;79.30;98844.88;5080960;27;46842;-63
2024/03/29 08:28:14;;;;;;;;;0.25;0.00;;;;;13.36;79.12;98865.38;5080917;28;45398;-63
2024/03/29 08:30:40;;;;;;;;;0.00;0.00;;;;;13.22;78.88;98858.31;5081131;28;45401;-62
2024/03/29 08:33:05;;;;;;;;;0.00;0.00;;;;;13.22;78.82;98861.84;5080752;27;45646;-63
2024/03/29 08:35:32;;;;;;;;;0.25;0.00;;;;;13.30;78.68;98869.34;5080870;27;45430;-63
2024/03/29 08:37:58;;;;;;;;;0.00;0.00;;;;;13.41;78.43;98887.31;5080962;28;45309;-63
2024/03/29 08:40:25;;;;;;;;;1.00;1.00;;;;;13.35;78.26;98872.56;5080674;27;45314;-63
2024/03/29 08:42:50;;;;;;;;;1.00;1.00;;;;;13.33;78.14;98859.28;5079249;28;47591;-63
2024/03/29 08:45:16;;;;;;;;;0.50;0.50;;;;;13.39;78.09;98862.47;5080799;27;45357;-63
2024/03/29 08:47:41;;;;;;;;;0.00;0.00;;;;;13.34;78.05;98866.31;5080520;27;45515;-63
2024/03/29 08:50:07;;;;;;;;;3.25;0.00;;;;;13.34;78.23;98852.91;5079437;28;45481;-63
2024/03/29 08:52:32;;;;;;;;;0.00;0.00;;;;;13.53;77.95;98884.59;5080369;27;46286;-63
2024/03/29 08:54:58;;;;;;;;;1.00;0.00;;;;;13.46;77.78;98869.91;5080510;27;45444;-63
2024/03/29 08:57:23;;;;;;;;;2.00;1.00;;;;;13.30;77.69;98847.91;5080361;28;45361;-63
2024/03/29 08:59:48;;;;;;;;;0.00;0.00;;;;;13.51;77.81;98894.59;5079198;28;45419;-63
2024/03/29 09:02:14;;;;;;;;;1.00;1.00;;;;;13.35;77.70;98875.25;5079998;27;46457;-63
2024/03/29 09:04:39;;;;;;;;;2.00;1.00;;;;;13.39;77.90;98874.03;5080483;27;45436;-63
2024/03/29 09:07:05;;;;;;;;;2.00;0.00;;;;;13.51;77.92;98896.38;5080392;28;45413;-63
2024/03/29 09:09:32;;;;;;;;;1.00;1.00;;;;;13.67;78.01;98936.34;5078752;28;45858;-63
2024/03/29 09:11:57;;;;;;;;;0.00;0.00;;;;;13.60;78.03;98925.22;5079994;28;47133;-63
2024/03/29 09:14:24;;;;;;;;;0.00;0.00;;;;;13.53;78.05;98919.44;5080253;27;45355;-63
2024/03/29 09:16:49;;;;;;;;;1.00;1.00;;;;;13.52;77.96;98909.69;5080299;27;45417;-63
2024/03/29 09:19:15;;;;;;;;;1.00;1.00;;;;;13.73;78.04;98937.69;5078460;28;45330;-63
2024/03/29 09:21:40;;;;;;;;;1.00;1.00;;;;;13.58;78.26;98916.44;5079893;27;46428;-63
2024/03/29 09:24:06;;;;;;;;;1.00;1.00;;;;;13.59;77.85;98933.38;5080080;27;45422;-63
2024/03/29 09:26:32;;;;;;;;;0.50;0.00;;;;;13.64;77.15;98928.50;5078603;28;45313;-63
2024/03/29 09:28:58;;;;;;;;;0.00;0.00;;;;;13.61;77.20;98943.00;5080132;27;45440;-63
2024/03/29 09:31:23;;;;;;;;;0.25;0.25;;;;;13.62;77.16;98952.75;5079836;28;45411;-63
2024/03/29 09:33:53;;;;;;;;;2.25;1.50;;;;;13.71;76.69;98978.91;5079979;27;45435;-63
2024/03/29 09:36:23;;;;;;;;;0.00;0.00;;;;;13.76;76.96;98977.69;5079097;28;45397;-63
2024/03/29 09:38:49;;;;;;;;;1.25;0.50;;;;;13.79;76.59;98982.84;5079723;27;45441;-63
2024/03/29 09:41:15;;;;;;;;;2.50;1.50;;;;;13.79;76.69;98972.09;5078394;28;47359;-63
2024/03/29 09:43:44;;;;;;;;;2.00;1.00;;;;;13.94;76.45;98962.06;5084300;27;45481;-63
2024/03/29 09:46:10;;;;;;;;;0.00;0.00;;;;;13.80;76.66;98920.16;5077860;28;45324;-63
2024/03/29 09:48:37;;;;;;;;;0.00;0.00;;;;;13.79;76.19;98929.19;5079920;27;45375;-63
2024/03/29 09:51:07;;;;;;;;;0.50;0.00;;;;;13.85;76.05;98936.78;5078018;28;47469;-63
2024/03/29 09:53:37;;;;;;;;;0.00;0.00;;;;;13.92;75.68;98943.41;5079448;28;45308;-63
2024/03/29 09:56:06;;;;;;;;;1.50;0.00;;;;;13.93;75.74;98950.47;5079496;27;45401;-63
2024/03/29 09:58:36;;;;;;;;;0.00;0.00;;;;;13.99;75.24;98971.47;5079598;27;45402;-63
2024/03/29 10:01:03;;;;;;;;;1.00;0.00;;;;;14.13;75.22;98994.56;5079451;27;45715;-63
2024/03/29 10:03:39;;;;;;;;;0.00;0.00;;;;;14.06;74.63;98985.28;5079526;27;45414;-63
2024/03/29 10:06:07;;;;;;;;;0.25;0.00;;;;;14.15;74.37;98997.16;5067712;28;45574;-63
2024/03/29 10:08:33;;;;;;;;;0.00;0.00;;;;;14.12;74.36;98986.66;5079258;27;45315;-63
2024/03/29 10:10:59;;;;;;;;;1.50;0.75;;;;;14.12;74.32;98976.78;5079463;27;45338;-63
2024/03/29 10:13:25;;;;;;;;;1.00;0.00;;;;;14.04;74.40;98966.63;5079301;27;45399;-63
2024/03/29 10:15:55;;;;;;;;;0.75;0.25;;;;;14.29;74.06;99006.88;5079474;27;45345;-63
2024/03/29 10:18:27;;;;;;;;;0.75;0.00;;;;;14.09;73.64;98969.81;5077887;28;45588;-63
2024/03/29 10:21:07;;;;;;;;;0.00;0.00;;;;;14.11;73.89;98979.59;5079234;27;45499;-63
2024/03/29 10:23:37;;;;;;;;;2.00;0.00;;;;;14.17;73.45;98987.19;5078987;28;45567;-63
2024/03/29 10:26:03;;;;;;;;;0.00;0.00;;;;;14.09;73.44;98959.06;5079243;27;45511;-63
2024/03/29 10:28:34;;;;;;;;;3.50;1.00;;;;;14.26;73.60;98981.09;5077560;28;46135;-63
2024/03/29 10:31:03;;;;;;;;;0.00;0.00;;;;;14.14;73.31;98958.72;5078984;27;46343;-63
2024/03/29 10:33:32;;;;;;;;;0.00;0.00;;;;;14.30;73.00;98981.72;5079264;28;45672;-63
2024/03/29 10:35:59;;;;;;;;;0.00;0.00;;;;;14.30;72.89;98977.22;5079275;27;45506;-63
2024/03/29 10:38:26;;;;;;;;;0.00;0.00;;;;;14.24;72.54;98956.22;5078926;27;45248;-62
2024/03/29 10:40:52;;;;;;;;;0.25;0.00;;;;;14.29;72.28;98964.78;5079030;28;46105;-63
2024/03/29 10:43:19;;;;;;;;;3.25;2.75;;;;;14.30;72.44;98965.63;5077672;28;45545;-63
2024/03/29 10:45:46;;;;;;;;;1.00;1.00;;;;;14.33;72.30;98957.34;5078819;27;45575;-63
2024/03/29 10:48:15;;;;;;;;;0.00;0.00;;;;;14.34;72.00;98951.00;5081887;27;45467;-63
2024/03/29 10:50:42;;;;;;;;;0.00;0.00;;;;;14.36;71.81;98951.72;5081021;28;48437;-63
2024/03/29 10:53:09;;;;;;;;;0.00;0.00;;;;;14.43;71.10;98956.53;5082473;27;45545;-63
2024/03/29 10:55:35;;;;;;;;;0.00;0.00;;;;;14.38;70.67;98936.38;5082516;27;45444;-63
2024/03/29 10:58:03;;;;;;;;;0.50;0.50;;;;;14.60;70.92;98962.44;5082422;27;45555;-63
2024/03/29 11:00:34;;;;;;;;;1.00;0.25;;;;;14.47;71.30;98924.94;5082280;27;45427;-63
2024/03/29 11:03:19;;;;;;;;;1.00;1.00;;;;;14.71;70.63;98965.16;5082202;27;45398;-63
2024/03/29 11:05:50;;;;;;;;;2.75;1.50;;;;;14.57;70.68;98943.88;5082280;27;45619;-63
2024/03/29 11:08:24;;;;;;;;;1.00;1.00;;;;;14.75;70.58;98965.75;5080677;28;45564;-63
2024/03/29 11:10:53;;;;;;;;;0.00;0.00;;;;;14.64;69.82;98940.59;5082245;27;46407;-63
2024/03/29 11:13:24;;;;;;;;;1.25;0.00;;;;;14.87;69.53;98978.25;5082110;27;45403;-63
2024/03/29 11:15:50;;;;;;;;;0.50;0.50;;;;;14.79;69.40;98970.78;5082135;27;45282;-63
2024/03/29 11:18:18;;;;;;;;;0.75;0.75;;;;;14.92;69.38;98988.63;5081995;27;45370;-63
2024/03/29 11:20:50;;;;;;;;;2.00;1.00;;;;;14.80;69.61;98959.06;5080571;28;47228;-63
2024/03/29 11:23:17;;;;;;;;;2.00;1.00;;;;;14.97;69.02;98987.28;5081732;27;45314;-63
2024/03/29 11:25:45;;;;;;;;;0.75;0.75;;;;;14.81;69.14;98959.91;5082047;27;45422;-63
2024/03/29 11:28:17;;;;;;;;;1.25;0.00;;;;;15.02;68.88;99000.38;5081659;27;45548;-63
2024/03/29 11:30:46;;;;;;;;;0.00;0.00;;;;;15.00;68.11;98991.56;5081702;27;45410;-63
2024/03/29 11:33:33;;;;;;;;;0.00;0.00;;;;;14.94;68.52;98982.16;5080435;28;45499;-63
2024/03/29 11:36:10;;;;;;;;;0.00;0.00;;;;;14.90;68.57;98975.31;5082009;27;45378;-63
2024/03/29 11:38:36;;;;;;;;;0.00;0.00;;;;;14.90;68.05;98959.22;5097356;27;45612;-63